Rossie, Iowa
Current Conditions -  °F | °C
As of 6:53 AM on Thursday 30 Oct 2014 (Local Time) from KSPW Reporting Station
Overcast Overcast  
Wind Chill: 41°   Ceiling: 9500
Heat Index: 41°   Visibility: 10mi
Dew Point: 35°   Wind: 3mph
Humidity: 79%   Direction: 180°S
Pressure: 30"   Gusts: NA
Location:  43.0463°N, 95.2692°W
Report Text: KSPW 301153Z AUTO 18003KT 10SM FEW075 OVC095 05/02 A3000 RMK AO2 SLP169 T00500017 10067 20050 53003 TSNO
Loading
Personal Weather Stations






























Interactive Weather Map
Tropical Storm Tracking
New forecast layout! Learn more

10-Day Weather Forecast

Advertisements
Track Severe Weather on mobile